Espigao d'Oeste, Brazil
Current Conditions -  °F | °C
As of 6:00 PM on Saturday 25 Oct 2014 (Local Time) from SBVH Reporting Station
Light Rain Light Rain  
Wind Chill: 72°   Ceiling: 1500
Heat Index: 72°   Visibility: 4mi
Dew Point: 70°   Wind: 12mph
Humidity: 94%   Direction: 210°SSW
Pressure: 29.88"   Gusts: NA
Location:  11.52°S, 61.01°W
Report Text: SBVH 252200Z 21010KT 6000 -RA SCT009 BKN015 FEW023TCU BKN070 22/21 Q1012
Loading
Personal Weather Stations






























Interactive Weather Map
Tropical Storm Tracking
New forecast layout! Learn more

10-Day Weather Forecast

Advertisements
Track Severe Weather on mobile